PWSweather.com
Personal Weather Stations
Station Observations
PALLARSJSA
Sant Marti De CanalsES

Sant Marti De CanalsES

Lat: 42.22577, Lon: 0.9898

Elevation: 2130

Station Type: Davis Vantage Vue

http://www.casacota.cat

Latest ConditionsUpdated 3:01:19 PM GMT+01:01 Thursday, Nov 14, 2019
Currently Today's Max Today's Min Today's Average
Temperature 43.3°F6.3°C 43.3°F6.3°C 39.7°F4.3°C 40.4°F4.7°C
Dew Point 39.4°F4.1°C 39.4°F4.1°C 36.0°F2.2°C 37.7°F3.2°C
Winds Calm Calm 6.0 mph -9.7 kmh - - 0.8 mph 1.3 kmh
Wind Gusts -- 6.0 mph9.7 kmh - -
Humidity 86% 95% 81% 90%
Pressure 29.35 in993.9 mb 29.67 in1004.7 mb 29.35 in993.9 mb -
Hour Temp Dew Point Humidity Winds Wind Gusts Pressure Precip Precip Rate Daily Precip Total
03:01 PM 43.3°F6.3°C 39.4°F4.1°C 86% Calm Calm -- 29.35 in993.9 mb 0.00 in0.0 mm 0.00 in0.0 mm 0.00 in0.0 mm
02:46 PM 42.4°F5.8°C 37.9°F3.3°C 84% Calm Calm -- 29.35 in993.9 mb 0.00 in0.0 mm 0.00 in0.0 mm 0.00 in0.0 mm
02:31 PM 41.9°F5.5°C 37.1°F2.8°C 83% Calm Calm -- 29.36 in994.2 mb 0.00 in0.0 mm 0.00 in0.0 mm 0.00 in0.0 mm
02:16 PM 41.4°F5.2°C 37.8°F3.2°C 87% Calm Calm -- 29.37 in994.6 mb 0.00 in0.0 mm 0.00 in0.0 mm 0.00 in0.0 mm
02:01 PM 41.2°F5.1°C 38.5°F3.6°C 90% 1.0 mph E1.6 kmh E 1.0 mph1.6 kmh 29.37 in994.6 mb 0.00 in0.0 mm 0.00 in0.0 mm 0.00 in0.0 mm
01:46 PM 41.2°F5.1°C 38.8°F3.8°C 91% 1.0 mph W1.6 kmh W 1.0 mph1.6 kmh 29.37 in994.6 mb 0.00 in0.0 mm 0.00 in0.0 mm 0.00 in0.0 mm
01:31 PM 40.8°F4.9°C 38.4°F3.6°C 91% 1.0 mph SE1.6 kmh SE 1.0 mph1.6 kmh 29.37 in994.6 mb 0.00 in0.0 mm 0.00 in0.0 mm 0.00 in0.0 mm
01:16 PM 40.8°F4.9°C 38.4°F3.6°C 91% 1.0 mph SE1.6 kmh SE 1.0 mph1.6 kmh 29.37 in994.6 mb 0.00 in0.0 mm 0.00 in0.0 mm 0.00 in0.0 mm
01:01 PM 40.8°F4.9°C 38.4°F3.6°C 91% Calm Calm -- 29.37 in994.6 mb 0.00 in0.0 mm 0.00 in0.0 mm 0.00 in0.0 mm
12:46 PM 40.8°F4.9°C 38.9°F3.8°C 93% 1.0 mph SE1.6 kmh SE 1.0 mph1.6 kmh 29.38 in994.9 mb 0.00 in0.0 mm 0.00 in0.0 mm 0.00 in0.0 mm
12:31 PM 40.6°F4.8°C 38.5°F3.6°C 92% 3.0 mph SE4.8 kmh SE 3.0 mph4.8 kmh 29.40 in995.6 mb 0.00 in0.0 mm 0.00 in0.0 mm 0.00 in0.0 mm
12:16 PM 40.5°F4.7°C 38.1°F3.4°C 91% 1.0 mph SE1.6 kmh SE 1.0 mph1.6 kmh 29.40 in995.6 mb 0.00 in0.0 mm 0.00 in0.0 mm 0.00 in0.0 mm
12:01 PM 41.2°F5.1°C 39.1°F3.9°C 92% 5.0 mph SSE8.0 kmh SSE 5.0 mph8.0 kmh 29.41 in995.9 mb 0.00 in0.0 mm 0.00 in0.0 mm 0.00 in0.0 mm
11:46 AM 40.6°F4.8°C 38.5°F3.6°C 92% 6.0 mph NNW9.7 kmh NNW 6.0 mph9.7 kmh 29.41 in995.9 mb 0.00 in0.0 mm 0.00 in0.0 mm 0.00 in0.0 mm
11:31 AM 40.3°F4.6°C 38.4°F3.6°C 93% 2.0 mph SSW3.2 kmh SSW 2.0 mph3.2 kmh 29.42 in996.3 mb 0.00 in0.0 mm 0.00 in0.0 mm 0.00 in0.0 mm
11:16 AM 40.5°F4.7°C 37.5°F3.1°C 89% 6.0 mph NE9.7 kmh NE 6.0 mph9.7 kmh 29.42 in996.3 mb 0.00 in0.0 mm 0.00 in0.0 mm 0.00 in0.0 mm
11:01 AM 39.9°F4.4°C 38.3°F3.5°C 94% 2.0 mph ESE3.2 kmh ESE 2.0 mph3.2 kmh 29.43 in996.6 mb 0.00 in0.0 mm 0.00 in0.0 mm 0.00 in0.0 mm
10:46 AM 40.3°F4.6°C 38.7°F3.7°C 94% 1.0 mph WSW1.6 kmh WSW 1.0 mph1.6 kmh 29.44 in997.0 mb 0.00 in0.0 mm 0.00 in0.0 mm 0.00 in0.0 mm
10:31 AM 39.9°F4.4°C 38.6°F3.7°C 95% Calm Calm 1.0 mph1.6 kmh 29.44 in997.0 mb 0.00 in0.0 mm 0.00 in0.0 mm 0.00 in0.0 mm
10:16 AM 39.7°F4.3°C 38.4°F3.6°C 95% 3.0 mph N4.8 kmh N 3.0 mph4.8 kmh 29.44 in997.0 mb 0.00 in0.0 mm 0.00 in0.0 mm 0.00 in0.0 mm
10:01 AM 39.7°F4.3°C 38.4°F3.6°C 95% Calm Calm -- 29.44 in997.0 mb 0.00 in0.0 mm 0.00 in0.0 mm 0.00 in0.0 mm
09:46 AM 39.9°F4.4°C 38.6°F3.7°C 95% Calm Calm -- 29.44 in997.0 mb 0.00 in0.0 mm 0.00 in0.0 mm 0.00 in0.0 mm
09:31 AM 39.9°F4.4°C 38.6°F3.7°C 95% 1.0 mph SW1.6 kmh SW 1.0 mph1.6 kmh 29.45 in997.3 mb 0.00 in0.0 mm 0.00 in0.0 mm 0.00 in0.0 mm
09:16 AM 39.9°F4.4°C 38.6°F3.7°C 95% Calm Calm -- 29.45 in997.3 mb 0.00 in0.0 mm 0.00 in0.0 mm 0.00 in0.0 mm
09:01 AM 39.9°F4.4°C 38.3°F3.5°C 94% 1.0 mph SSW1.6 kmh SSW 1.0 mph1.6 kmh 29.45 in997.3 mb 0.00 in0.0 mm 0.00 in0.0 mm 0.00 in0.0 mm
08:46 AM 40.1°F4.5°C 38.5°F3.6°C 94% Calm Calm -- 29.45 in997.3 mb 0.00 in0.0 mm 0.00 in0.0 mm 0.00 in0.0 mm
08:31 AM 40.1°F4.5°C 38.5°F3.6°C 94% 2.0 mph NNW3.2 kmh NNW 2.0 mph3.2 kmh 29.46 in997.6 mb 0.00 in0.0 mm 0.00 in0.0 mm 0.00 in0.0 mm
08:16 AM 39.9°F4.4°C 38.6°F3.7°C 95% 1.0 mph W1.6 kmh W 1.0 mph1.6 kmh 29.47 in998.0 mb 0.00 in0.0 mm 0.00 in0.0 mm 0.00 in0.0 mm
08:01 AM 39.7°F4.3°C 38.1°F3.4°C 94% Calm Calm -- 29.47 in998.0 mb 0.00 in0.0 mm 0.00 in0.0 mm 0.00 in0.0 mm
07:46 AM 39.9°F4.4°C 38.3°F3.5°C 94% Calm Calm -- 29.47 in998.0 mb 0.00 in0.0 mm 0.00 in0.0 mm 0.00 in0.0 mm
07:31 AM 39.9°F4.4°C 38.3°F3.5°C 94% Calm Calm -- 29.47 in998.0 mb 0.00 in0.0 mm 0.00 in0.0 mm 0.00 in0.0 mm
07:16 AM 39.9°F4.4°C 38.0°F3.3°C 93% Calm Calm 1.0 mph1.6 kmh 29.48 in998.3 mb 0.00 in0.0 mm 0.00 in0.0 mm 0.00 in0.0 mm
07:01 AM 40.3°F4.6°C 38.2°F3.4°C 92% Calm Calm -- 29.49 in998.6 mb 0.00 in0.0 mm 0.00 in0.0 mm 0.00 in0.0 mm
06:46 AM 40.3°F4.6°C 38.2°F3.4°C 92% 4.0 mph NNW6.4 kmh NNW 4.0 mph6.4 kmh 29.49 in998.6 mb 0.00 in0.0 mm 0.00 in0.0 mm 0.00 in0.0 mm
06:31 AM 39.9°F4.4°C 38.0°F3.3°C 93% Calm Calm -- 29.50 in999.0 mb 0.00 in0.0 mm 0.00 in0.0 mm 0.00 in0.0 mm
06:16 AM 39.7°F4.3°C 37.6°F3.1°C 92% Calm Calm -- 29.50 in999.0 mb 0.00 in0.0 mm 0.00 in0.0 mm 0.00 in0.0 mm
06:01 AM 39.9°F4.4°C 37.5°F3.1°C 91% Calm Calm -- 29.51 in999.3 mb 0.00 in0.0 mm 0.00 in0.0 mm 0.00 in0.0 mm
05:46 AM 39.7°F4.3°C 37.3°F2.9°C 91% Calm Calm -- 29.51 in999.3 mb 0.00 in0.0 mm 0.00 in0.0 mm 0.00 in0.0 mm
05:31 AM 40.3°F4.6°C 37.6°F3.1°C 90% Calm Calm -- 29.52 in999.7 mb 0.00 in0.0 mm 0.00 in0.0 mm 0.00 in0.0 mm
05:16 AM 40.3°F4.6°C 37.9°F3.3°C 91% Calm Calm -- 29.52 in999.7 mb 0.00 in0.0 mm 0.00 in0.0 mm 0.00 in0.0 mm
05:01 AM 40.1°F4.5°C 37.4°F3.0°C 90% Calm Calm 1.0 mph1.6 kmh 29.54 in1000.3 mb 0.00 in0.0 mm 0.00 in0.0 mm 0.00 in0.0 mm
04:46 AM 40.5°F4.7°C 37.2°F2.9°C 88% Calm Calm -- 29.55 in1000.7 mb 0.00 in0.0 mm 0.00 in0.0 mm 0.00 in0.0 mm
04:31 AM 40.5°F4.7°C 37.2°F2.9°C 88% Calm Calm -- 29.55 in1000.7 mb 0.00 in0.0 mm 0.00 in0.0 mm 0.00 in0.0 mm
04:16 AM 40.6°F4.8°C 37.0°F2.8°C 87% Calm Calm -- 29.56 in1001.0 mb 0.00 in0.0 mm 0.00 in0.0 mm 0.00 in0.0 mm
04:01 AM 40.5°F4.7°C 36.9°F2.7°C 87% Calm Calm 1.0 mph1.6 kmh 29.57 in1001.4 mb 0.00 in0.0 mm 0.00 in0.0 mm 0.00 in0.0 mm
03:46 AM 40.3°F4.6°C 37.3°F2.9°C 89% Calm Calm -- 29.57 in1001.4 mb 0.00 in0.0 mm 0.00 in0.0 mm 0.00 in0.0 mm
03:31 AM 39.9°F4.4°C 36.6°F2.6°C 88% 1.0 mph NW1.6 kmh NW 1.0 mph1.6 kmh 29.59 in1002.0 mb 0.00 in0.0 mm 0.00 in0.0 mm 0.00 in0.0 mm
03:16 AM 40.1°F4.5°C 36.8°F2.7°C 88% Calm Calm -- 29.60 in1002.4 mb 0.00 in0.0 mm 0.00 in0.0 mm 0.00 in0.0 mm
02:46 AM 40.3°F4.6°C 36.5°F2.5°C 86% 2.0 mph E3.2 kmh E 2.0 mph3.2 kmh 29.61 in1002.7 mb 0.00 in0.0 mm 0.00 in0.0 mm 0.00 in0.0 mm
02:31 AM 40.1°F4.5°C 36.0°F2.2°C 85% Calm Calm -- 29.62 in1003.0 mb 0.00 in0.0 mm 0.00 in0.0 mm 0.00 in0.0 mm
02:16 AM 40.1°F4.5°C 36.0°F2.2°C 85% Calm Calm -- 29.63 in1003.4 mb 0.00 in0.0 mm 0.00 in0.0 mm 0.00 in0.0 mm
02:01 AM 40.1°F4.5°C 36.3°F2.4°C 86% Calm Calm -- 29.63 in1003.4 mb 0.00 in0.0 mm 0.00 in0.0 mm 0.00 in0.0 mm
01:46 AM 40.6°F4.8°C 36.5°F2.5°C 85% 1.0 mph WSW1.6 kmh WSW 2.0 mph3.2 kmh 29.64 in1003.7 mb 0.00 in0.0 mm 0.00 in0.0 mm 0.00 in0.0 mm
01:31 AM 40.8°F4.9°C 36.7°F2.6°C 85% 1.0 mph NE1.6 kmh NE 1.0 mph1.6 kmh 29.64 in1003.7 mb 0.00 in0.0 mm 0.00 in0.0 mm 0.00 in0.0 mm
01:16 AM 39.9°F4.4°C 36.1°F2.3°C 86% Calm Calm 1.0 mph1.6 kmh 29.66 in1004.4 mb 0.00 in0.0 mm 0.00 in0.0 mm 0.00 in0.0 mm
01:01 AM 40.6°F4.8°C 36.2°F2.3°C 84% Calm Calm 1.0 mph1.6 kmh 29.65 in1004.1 mb 0.00 in0.0 mm 0.00 in0.0 mm 0.00 in0.0 mm
12:46 AM 40.5°F4.7°C 36.4°F2.4°C 85% Calm Calm -- 29.66 in1004.4 mb 0.00 in0.0 mm 0.00 in0.0 mm 0.00 in0.0 mm
12:31 AM 40.3°F4.6°C 36.2°F2.3°C 85% Calm Calm -- 29.66 in1004.4 mb 0.00 in0.0 mm 0.00 in0.0 mm 0.00 in0.0 mm
12:16 AM 41.2°F5.1°C 36.4°F2.4°C 83% Calm Calm -- 29.66 in1004.4 mb 0.00 in0.0 mm 0.00 in0.0 mm 0.00 in0.0 mm
12:01 AM 42.3°F5.7°C 36.9°F2.7°C 81% 1.0 mph S1.6 kmh S 1.0 mph1.6 kmh 29.67 in1004.7 mb 0.00 in0.0 mm 0.00 in0.0 mm 0.00 in0.0 mm